Time;durP1;ratioP1;P1;durP2;ratioP2;P2;SDS_P1;SDS_P2;PMS_P1;PMS_P2;Temp;Humidity;BMP_temperature;BMP_pressure;BME280_temperature;BME280_humidity;BME280_pressure;Samples;Min_cycle;Max_cycle;Signal;HPM_P1;HPM_P2
2021/07/13 00:01:03;;;;;;;8.02;4.90;;;;;;;;;;5070561;28;20032;-68
2021/07/13 00:03:29;;;;;;;5.65;4.45;;;;;;;;;;5070778;28;20028;-69
2021/07/13 00:05:57;;;;;;;7.68;4.93;;;;;;;;;;5070800;28;20048;-68
2021/07/13 00:08:23;;;;;;;6.88;4.63;;;;;;;;;;5070509;28;20021;-69
2021/07/13 00:10:49;;;;;;;8.77;4.68;;;;;;;;;;5071103;28;20061;-68
2021/07/13 00:13:15;;;;;;;7.78;4.60;;;;;;;;;;5052816;28;20152;-69
2021/07/13 00:15:42;;;;;;;7.55;4.10;;;;;;;;;;5070980;28;20020;-69
2021/07/13 00:18:09;;;;;;;9.65;4.68;;;;;;;;;;5071050;28;20028;-69
2021/07/13 00:20:35;;;;;;;6.45;4.50;;;;;;;;;;5070778;28;20388;-69
2021/07/13 00:23:01;;;;;;;6.35;4.85;;;;;;;;;;5070918;28;20086;-69
2021/07/13 00:25:28;;;;;;;6.63;4.65;;;;;;;;;;5070689;28;20020;-68
2021/07/13 00:27:54;;;;;;;6.40;4.78;;;;;;;;;;5070410;28;20040;-68
2021/07/13 00:30:20;;;;;;;6.82;4.93;;;;;;;;;;5052589;28;20032;-68
2021/07/13 00:32:47;;;;;;;5.82;4.57;;;;;;;;;;5071791;28;20028;-68
2021/07/13 00:35:13;;;;;;;8.05;5.03;;;;;;;;;;5074440;28;20028;-68
2021/07/13 00:37:41;;;;;;;5.97;4.50;;;;;;;;;;5074334;28;20036;-68
2021/07/13 00:40:09;;;;;;;7.18;4.50;;;;;;;;;;5074488;28;20047;-68
2021/07/13 00:42:35;;;;;;;6.65;4.97;;;;;;;;;;5074170;28;20060;-69
2021/07/13 00:45:01;;;;;;;6.88;5.00;;;;;;;;;;5074237;28;20032;-70
2021/07/13 00:47:27;;;;;;;8.23;4.82;;;;;;;;;;5056401;28;20047;-68
2021/07/13 00:49:53;;;;;;;8.18;4.60;;;;;;;;;;5074137;28;20540;-68
2021/07/13 00:52:20;;;;;;;6.20;4.22;;;;;;;;;;5074200;28;20092;-68
2021/07/13 00:54:49;;;;;;;5.97;4.25;;;;;;;;;;5056107;28;20044;-69
2021/07/13 00:57:18;;;;;;;9.80;4.93;;;;;;;;;;5056017;28;20488;-70
2021/07/13 00:59:44;;;;;;;7.00;4.45;;;;;;;;;;5073743;28;20051;-69
2021/07/13 01:02:11;;;;;;;7.88;4.20;;;;;;;;;;5073101;28;20041;-68
2021/07/13 01:04:39;;;;;;;9.15;5.38;;;;;;;;;;5073141;28;20021;-69
2021/07/13 01:07:07;;;;;;;7.05;4.70;;;;;;;;;;5073303;28;20082;-69
2021/07/13 01:09:36;;;;;;;9.35;4.80;;;;;;;;;;5091283;28;20030;-69
2021/07/13 01:12:09;;;;;;;6.97;4.70;;;;;;;;;;5083594;28;20021;-68
2021/07/13 01:14:40;;;;;;;6.65;4.75;;;;;;;;;;5073580;28;20538;-68
2021/07/13 01:17:18;;;;;;;6.68;4.68;;;;;;;;;;5073670;28;20108;-69
2021/07/13 01:19:53;;;;;;;8.63;4.90;;;;;;;;;;5073604;28;20024;-68
2021/07/13 01:22:23;;;;;;;5.95;4.43;;;;;;;;;;5073089;28;20032;-68
2021/07/13 01:25:07;;;;;;;6.38;4.65;;;;;;;;;;5073383;28;20066;-69
2021/07/13 01:27:38;;;;;;;5.80;4.47;;;;;;;;;;5073347;28;20025;-68
2021/07/13 01:30:08;;;;;;;7.25;4.95;;;;;;;;;;5073484;28;20074;-69
2021/07/13 01:32:35;;;;;;;6.07;4.78;;;;;;;;;;5073142;28;20028;-69
2021/07/13 01:35:03;;;;;;;7.13;4.30;;;;;;;;;;5073263;28;20024;-69
2021/07/13 01:37:30;;;;;;;8.00;5.10;;;;;;;;;;5073228;28;20090;-67
2021/07/13 01:39:57;;;;;;;6.82;4.63;;;;;;;;;;5054754;28;20477;-69
2021/07/13 01:42:24;;;;;;;6.15;4.63;;;;;;;;;;5072706;28;20051;-68
2021/07/13 01:44:51;;;;;;;10.15;4.63;;;;;;;;;;5072517;28;20104;-69
2021/07/13 01:47:18;;;;;;;7.47;4.72;;;;;;;;;;5054915;28;20028;-69
2021/07/13 01:49:46;;;;;;;8.60;4.93;;;;;;;;;;5072520;28;20020;-68
2021/07/13 01:52:12;;;;;;;9.55;5.00;;;;;;;;;;5072615;28;20028;-68
2021/07/13 01:54:40;;;;;;;6.70;4.63;;;;;;;;;;5072780;28;20389;-68
2021/07/13 01:57:07;;;;;;;8.40;5.00;;;;;;;;;;5072494;28;20021;-69
2021/07/13 01:59:33;;;;;;;8.40;4.53;;;;;;;;;;5072824;28;20389;-69
2021/07/13 02:02:02;;;;;;;5.95;4.60;;;;;;;;;;5072704;28;20048;-69
2021/07/13 02:04:32;;;;;;;7.60;4.35;;;;;;;;;;5072580;28;20021;-69
2021/07/13 02:06:59;;;;;;;8.52;4.72;;;;;;;;;;5072197;28;20031;-68
2021/07/13 02:09:26;;;;;;;7.40;4.72;;;;;;;;;;5072576;28;20031;-70
2021/07/13 02:11:53;;;;;;;6.38;4.95;;;;;;;;;;5072566;28;20025;-69
2021/07/13 02:14:19;;;;;;;6.43;4.63;;;;;;;;;;5072184;28;20036;-70
2021/07/13 02:16:45;;;;;;;6.15;4.75;;;;;;;;;;5072361;28;20025;-68
2021/07/13 02:19:12;;;;;;;6.05;4.95;;;;;;;;;;5072075;28;20622;-68
2021/07/13 02:21:38;;;;;;;7.53;4.90;;;;;;;;;;5072347;28;20036;-67
2021/07/13 02:24:04;;;;;;;6.85;5.20;;;;;;;;;;5053896;28;20492;-70
2021/07/13 02:26:45;;;;;;;7.78;4.60;;;;;;;;;;5072399;28;20038;-68
2021/07/13 02:29:15;;;;;;;6.03;4.57;;;;;;;;;;5072034;28;20051;-68
2021/07/13 02:31:44;;;;;;;7.35;5.00;;;;;;;;;;5072357;28;20381;-69
2021/07/13 02:34:11;;;;;;;5.82;4.53;;;;;;;;;;5072247;28;20028;-69
2021/07/13 02:36:42;;;;;;;6.93;4.85;;;;;;;;;;5072093;28;20508;-69
2021/07/13 02:39:09;;;;;;;6.45;4.97;;;;;;;;;;5071925;28;20113;-68
2021/07/13 02:41:36;;;;;;;7.50;5.03;;;;;;;;;;5071884;28;20060;-68
2021/07/13 02:44:03;;;;;;;5.68;4.35;;;;;;;;;;5071760;28;20085;-68
2021/07/13 02:46:30;;;;;;;7.20;4.88;;;;;;;;;;5071727;28;20021;-69
2021/07/13 02:48:57;;;;;;;7.38;4.80;;;;;;;;;;5071621;28;20024;-68
2021/07/13 02:51:25;;;;;;;6.30;4.47;;;;;;;;;;5071819;28;20043;-69
2021/07/13 02:53:52;;;;;;;7.32;4.75;;;;;;;;;;5053734;28;20499;-69
2021/07/13 02:56:19;;;;;;;6.80;4.70;;;;;;;;;;5070713;28;20029;-68
2021/07/13 02:58:45;;;;;;;7.50;4.70;;;;;;;;;;5053460;28;20033;-69
2021/07/13 03:01:11;;;;;;;8.63;4.78;;;;;;;;;;5071360;28;20025;-69
2021/07/13 03:03:41;;;;;;;8.05;5.15;;;;;;;;;;5071465;28;20025;-68
2021/07/13 03:06:08;;;;;;;6.00;4.53;;;;;;;;;;5071620;28;20104;-69
2021/07/13 03:08:34;;;;;;;6.88;4.38;;;;;;;;;;5071408;28;20070;-69
2021/07/13 03:11:02;;;;;;;7.15;4.68;;;;;;;;;;5071669;28;20504;-68
2021/07/13 03:13:28;;;;;;;6.47;4.10;;;;;;;;;;5071406;28;20532;-69
2021/07/13 03:15:54;;;;;;;5.68;4.53;;;;;;;;;;5071503;28;20025;-68
2021/07/13 03:18:21;;;;;;;10.50;4.78;;;;;;;;;;5053455;28;20036;-69
2021/07/13 03:20:49;;;;;;;6.25;4.70;;;;;;;;;;5071225;28;20031;-69
2021/07/13 03:23:17;;;;;;;6.57;4.75;;;;;;;;;;5053095;28;20123;-68
2021/07/13 03:25:43;;;;;;;8.18;4.50;;;;;;;;;;5071264;28;20028;-70
2021/07/13 03:28:14;;;;;;;5.95;4.75;;;;;;;;;;5071019;28;20591;-69
2021/07/13 03:30:41;;;;;;;7.68;5.00;;;;;;;;;;5070993;28;20099;-69
2021/07/13 03:33:07;;;;;;;5.72;4.65;;;;;;;;;;5071300;28;20090;-68
2021/07/13 03:35:33;;;;;;;8.10;4.93;;;;;;;;;;5053106;28;20028;-69
2021/07/13 03:38:00;;;;;;;6.40;4.68;;;;;;;;;;5070972;28;20032;-69
2021/07/13 03:40:27;;;;;;;7.75;4.60;;;;;;;;;;5071170;28;20025;-69
2021/07/13 03:42:54;;;;;;;7.50;4.90;;;;;;;;;;5070926;28;20036;-69
2021/07/13 03:45:20;;;;;;;7.95;4.97;;;;;;;;;;5052821;28;20065;-68
2021/07/13 03:47:51;;;;;;;8.25;4.57;;;;;;;;;;5071202;28;20032;-70
2021/07/13 03:50:18;;;;;;;6.65;4.55;;;;;;;;;;5052829;28;20059;-68
2021/07/13 03:52:44;;;;;;;8.30;4.63;;;;;;;;;;5070844;28;20020;-69
2021/07/13 03:55:11;;;;;;;6.47;4.68;;;;;;;;;;5071066;28;20052;-69
2021/07/13 03:57:37;;;;;;;7.13;4.97;;;;;;;;;;5071048;28;20036;-68
2021/07/13 04:00:05;;;;;;;6.82;4.55;;;;;;;;;;5070991;28;20074;-68
2021/07/13 04:02:31;;;;;;;7.18;4.55;;;;;;;;;;5070969;28;20385;-68
2021/07/13 04:04:57;;;;;;;8.45;4.63;;;;;;;;;;5070587;28;20165;-67
2021/07/13 04:07:23;;;;;;;7.80;4.93;;;;;;;;;;5055249;28;20385;-69
2021/07/13 04:09:50;;;;;;;6.50;4.70;;;;;;;;;;5074984;28;20378;-69
2021/07/13 04:12:17;;;;;;;8.13;5.28;;;;;;;;;;5074677;28;20516;-68
2021/07/13 04:14:43;;;;;;;6.13;4.80;;;;;;;;;;5074684;28;20024;-69
2021/07/13 04:17:10;;;;;;;9.90;4.93;;;;;;;;;;5074660;28;20033;-69
2021/07/13 04:19:36;;;;;;;9.18;5.63;;;;;;;;;;5074016;28;20021;-68
2021/07/13 04:22:02;;;;;;;7.70;5.10;;;;;;;;;;5074644;28;20052;-69
2021/07/13 04:24:28;;;;;;;7.70;5.07;;;;;;;;;;5074262;28;20043;-69
2021/07/13 04:26:54;;;;;;;6.90;4.57;;;;;;;;;;5056513;28;20029;-69
2021/07/13 04:29:20;;;;;;;6.78;4.93;;;;;;;;;;5074048;28;20016;-69
2021/07/13 04:31:46;;;;;;;7.35;5.50;;;;;;;;;;5074051;28;20029;-69
2021/07/13 04:34:12;;;;;;;7.88;5.10;;;;;;;;;;5055973;28;20468;-68
2021/07/13 04:36:39;;;;;;;8.15;5.18;;;;;;;;;;5074486;28;20070;-69
2021/07/13 04:39:08;;;;;;;6.38;4.85;;;;;;;;;;5074287;28;20047;-69
2021/07/13 04:41:35;;;;;;;6.72;4.97;;;;;;;;;;5073936;28;20553;-69
2021/07/13 04:44:01;;;;;;;9.43;4.65;;;;;;;;;;5073995;28;20067;-68
2021/07/13 04:46:27;;;;;;;10.00;5.80;;;;;;;;;;5073991;28;20025;-68
2021/07/13 04:48:54;;;;;;;6.72;4.80;;;;;;;;;;5074045;28;20028;-69
2021/07/13 04:51:20;;;;;;;6.90;5.00;;;;;;;;;;5073865;28;20025;-68
2021/07/13 04:53:47;;;;;;;6.50;4.47;;;;;;;;;;5073919;28;20009;-68
2021/07/13 04:56:13;;;;;;;7.03;4.70;;;;;;;;;;5073798;28;20083;-68
2021/07/13 04:58:39;;;;;;;6.38;4.82;;;;;;;;;;5074009;28;20036;-70
2021/07/13 05:01:05;;;;;;;6.00;4.28;;;;;;;;;;5055697;28;20107;-69
2021/07/13 05:03:31;;;;;;;7.10;5.20;;;;;;;;;;5055506;28;20093;-69
2021/07/13 05:05:57;;;;;;;8.18;4.78;;;;;;;;;;5054682;28;20025;-69
2021/07/13 05:08:23;;;;;;;6.25;4.80;;;;;;;;;;5053670;28;20033;-69
2021/07/13 05:10:50;;;;;;;7.05;4.32;;;;;;;;;;5053551;28;20021;-71
2021/07/13 05:13:16;;;;;;;6.78;4.80;;;;;;;;;;5053283;28;20633;-72
2021/07/13 05:15:42;;;;;;;7.18;5.18;;;;;;;;;;5052109;28;20126;-71
2021/07/13 05:18:11;;;;;;;7.75;4.43;;;;;;;;;;5072595;28;20031;-72
2021/07/13 05:20:43;;;;;;;8.25;5.32;;;;;;;;;;5055695;28;20043;-69
2021/07/13 05:23:09;;;;;;;6.20;5.17;;;;;;;;;;5073372;28;20043;-70
2021/07/13 05:25:36;;;;;;;6.45;4.53;;;;;;;;;;5073499;28;20016;-70
2021/07/13 05:28:03;;;;;;;8.07;5.70;;;;;;;;;;5055497;28;20089;-69
2021/07/13 05:30:29;;;;;;;7.45;5.10;;;;;;;;;;5073561;28;20031;-69
2021/07/13 05:32:55;;;;;;;8.23;5.25;;;;;;;;;;5055535;28;20378;-70
2021/07/13 05:35:22;;;;;;;6.50;4.82;;;;;;;;;;5073331;28;20095;-69
2021/07/13 05:37:48;;;;;;;7.95;5.25;;;;;;;;;;5073194;28;20032;-70
2021/07/13 05:40:14;;;;;;;7.38;5.38;;;;;;;;;;5055278;28;20116;-69
2021/07/13 05:42:41;;;;;;;6.65;4.90;;;;;;;;;;5055127;28;20064;-73
2021/07/13 05:45:07;;;;;;;7.43;5.40;;;;;;;;;;5054836;28;20020;-72
2021/07/13 05:47:34;;;;;;;9.13;5.43;;;;;;;;;;5073264;28;20116;-70
2021/07/13 05:50:00;;;;;;;7.97;5.47;;;;;;;;;;5072977;28;20052;-72
2021/07/13 05:52:26;;;;;;;10.25;5.57;;;;;;;;;;5073151;28;20016;-72
2021/07/13 05:54:52;;;;;;;7.18;5.43;;;;;;;;;;5073266;28;20501;-72
2021/07/13 05:57:18;;;;;;;10.82;6.00;;;;;;;;;;5072754;28;20424;-72
2021/07/13 05:59:44;;;;;;;7.25;5.63;;;;;;;;;;5072542;28;20374;-70
2021/07/13 06:02:10;;;;;;;7.45;5.30;;;;;;;;;;5072660;28;20032;-69
2021/07/13 06:04:37;;;;;;;8.65;5.60;;;;;;;;;;5072829;28;20021;-68
2021/07/13 06:07:03;;;;;;;7.25;5.53;;;;;;;;;;5072841;28;20473;-70
2021/07/13 06:09:29;;;;;;;8.15;5.40;;;;;;;;;;5054948;28;20547;-69
2021/07/13 06:11:58;;;;;;;6.70;5.47;;;;;;;;;;5072776;28;20047;-68
2021/07/13 06:14:25;;;;;;;8.45;5.93;;;;;;;;;;5072658;28;20131;-69
2021/07/13 06:16:51;;;;;;;7.20;5.07;;;;;;;;;;5072617;28;20100;-69
2021/07/13 06:19:17;;;;;;;9.60;5.60;;;;;;;;;;5072597;28;20362;-69
2021/07/13 06:21:44;;;;;;;8.80;5.57;;;;;;;;;;5072402;28;20033;-70
2021/07/13 06:24:10;;;;;;;10.75;5.68;;;;;;;;;;5072361;28;20020;-69
2021/07/13 06:26:37;;;;;;;7.43;5.40;;;;;;;;;;5072417;28;20032;-70
2021/07/13 06:29:03;;;;;;;7.45;5.15;;;;;;;;;;5054317;28;20436;-70
2021/07/13 06:31:29;;;;;;;7.78;5.55;;;;;;;;;;5053467;28;20497;-70
2021/07/13 06:33:55;;;;;;;7.10;5.32;;;;;;;;;;5072114;28;20029;-69
2021/07/13 06:36:21;;;;;;;9.70;6.40;;;;;;;;;;5054307;28;20021;-69
2021/07/13 06:38:47;;;;;;;7.68;5.70;;;;;;;;;;5072153;28;20016;-70
2021/07/13 06:41:13;;;;;;;7.30;5.40;;;;;;;;;;5053844;28;20026;-69
2021/07/13 06:43:39;;;;;;;11.30;6.00;;;;;;;;;;5072021;28;20489;-70
2021/07/13 06:46:05;;;;;;;9.45;6.20;;;;;;;;;;5072187;28;20533;-69
2021/07/13 06:48:32;;;;;;;7.65;5.57;;;;;;;;;;5072204;28;20028;-68
2021/07/13 06:50:58;;;;;;;7.78;5.32;;;;;;;;;;5053669;28;20024;-70
2021/07/13 06:53:25;;;;;;;7.97;5.85;;;;;;;;;;5071671;28;20074;-69
2021/07/13 06:55:51;;;;;;;10.60;6.47;;;;;;;;;;5071794;28;20134;-70
2021/07/13 06:58:17;;;;;;;7.07;5.72;;;;;;;;;;5071838;28;20069;-70
2021/07/13 07:00:43;;;;;;;7.50;5.43;;;;;;;;;;5071611;28;20024;-70
2021/07/13 07:03:09;;;;;;;8.18;5.90;;;;;;;;;;5071493;28;20028;-68
2021/07/13 07:05:36;;;;;;;8.30;6.07;;;;;;;;;;5071730;28;20161;-73
2021/07/13 07:08:02;;;;;;;8.23;5.75;;;;;;;;;;5053684;28;20492;-69
2021/07/13 07:10:28;;;;;;;10.68;5.97;;;;;;;;;;5071628;28;20020;-70
2021/07/13 07:12:54;;;;;;;8.25;5.53;;;;;;;;;;5071214;28;20106;-68
2021/07/13 07:15:21;;;;;;;8.52;5.43;;;;;;;;;;5071608;28;20032;-69
2021/07/13 07:17:53;;;;;;;8.88;6.00;;;;;;;;;;5071415;28;20073;-70
2021/07/13 07:20:21;;;;;;;8.82;6.18;;;;;;;;;;5053456;28;20082;-68
2021/07/13 07:22:47;;;;;;;9.40;6.30;;;;;;;;;;5052968;28;20029;-72
2021/07/13 07:25:13;;;;;;;8.65;5.90;;;;;;;;;;5070449;28;20035;-73
2021/07/13 07:27:40;;;;;;;10.05;6.22;;;;;;;;;;5071453;28;20024;-72
2021/07/13 07:30:10;;;;;;;8.00;6.18;;;;;;;;;;5071609;28;20035;-73
2021/07/13 07:32:37;;;;;;;7.50;5.85;;;;;;;;;;5053100;28;20460;-70
2021/07/13 07:35:04;;;;;;;9.50;5.88;;;;;;;;;;5053201;28;20020;-70
2021/07/13 07:37:30;;;;;;;9.63;6.07;;;;;;;;;;5071026;28;20028;-70
2021/07/13 07:39:56;;;;;;;7.10;5.50;;;;;;;;;;5071305;28;20033;-70
2021/07/13 07:42:22;;;;;;;8.43;6.47;;;;;;;;;;5052708;28;20044;-70
2021/07/13 07:44:49;;;;;;;11.48;6.13;;;;;;;;;;5052920;28;20032;-68
2021/07/13 07:47:15;;;;;;;8.10;5.70;;;;;;;;;;5071056;28;20025;-68
2021/07/13 07:49:41;;;;;;;8.88;6.05;;;;;;;;;;5070883;28;20024;-73
2021/07/13 07:52:07;;;;;;;8.35;5.85;;;;;;;;;;5053145;28;20463;-73
2021/07/13 07:54:33;;;;;;;7.50;4.88;;;;;;;;;;5053149;28;20120;-72
2021/07/13 07:56:59;;;;;;;8.43;6.20;;;;;;;;;;5071123;28;20127;-72
2021/07/13 07:59:26;;;;;;;9.88;6.20;;;;;;;;;;5070883;28;20330;-70
2021/07/13 08:01:52;;;;;;;9.48;6.13;;;;;;;;;;5070809;28;20461;-69
2021/07/13 08:04:18;;;;;;;8.60;6.10;;;;;;;;;;5052763;28;20029;-70
2021/07/13 08:06:44;;;;;;;9.55;5.72;;;;;;;;;;5071078;28;20012;-70
2021/07/13 08:09:10;;;;;;;9.95;6.30;;;;;;;;;;5070947;28;20039;-71
2021/07/13 08:11:37;;;;;;;12.35;5.75;;;;;;;;;;5071204;28;20021;-69
2021/07/13 08:14:04;;;;;;;7.97;6.07;;;;;;;;;;5070699;28;20052;-70
2021/07/13 08:16:35;;;;;;;7.97;6.18;;;;;;;;;;5070827;28;20511;-70
2021/07/13 08:19:01;;;;;;;10.00;6.25;;;;;;;;;;5070757;28;20017;-70
2021/07/13 08:21:27;;;;;;;7.72;5.80;;;;;;;;;;5070877;28;20041;-71
2021/07/13 08:23:53;;;;;;;8.20;6.10;;;;;;;;;;5070649;28;20564;-70
2021/07/13 08:26:19;;;;;;;9.90;6.88;;;;;;;;;;5070708;28;20120;-68
2021/07/13 08:28:45;;;;;;;8.77;5.72;;;;;;;;;;5071011;28;20024;-70
2021/07/13 08:31:11;;;;;;;8.82;6.20;;;;;;;;;;5070752;28;20283;-71
2021/07/13 08:33:38;;;;;;;8.13;6.05;;;;;;;;;;5070603;28;20095;-70
2021/07/13 08:36:04;;;;;;;8.38;5.57;;;;;;;;;;5070512;28;20024;-69
2021/07/13 08:38:30;;;;;;;8.00;6.20;;;;;;;;;;5070512;28;20024;-70
2021/07/13 08:40:56;;;;;;;9.25;6.03;;;;;;;;;;5070513;28;20055;-71
2021/07/13 08:43:26;;;;;;;9.75;5.68;;;;;;;;;;5070366;28;20029;-71
2021/07/13 08:45:55;;;;;;;10.10;6.10;;;;;;;;;;5070565;28;20029;-71
2021/07/13 08:48:22;;;;;;;8.57;6.20;;;;;;;;;;5070429;28;20032;-69
2021/07/13 08:50:49;;;;;;;9.93;6.00;;;;;;;;;;5052501;28;20024;-70
2021/07/13 08:53:15;;;;;;;10.10;5.97;;;;;;;;;;5071023;28;20611;-71
2021/07/13 08:55:41;;;;;;;7.53;5.72;;;;;;;;;;5074079;28;20024;-71
2021/07/13 08:58:11;;;;;;;7.90;5.90;;;;;;;;;;5074087;28;20035;-71
2021/07/13 09:00:37;;;;;;;10.77;6.18;;;;;;;;;;5074129;28;20020;-70
2021/07/13 09:03:11;;;;;;;8.20;5.90;;;;;;;;;;5073793;28;20037;-68
2021/07/13 09:05:41;;;;;;;7.95;5.95;;;;;;;;;;5073848;28;20027;-72
2021/07/13 09:08:16;;;;;;;6.97;5.40;;;;;;;;;;5073847;28;20500;-72
2021/07/13 09:10:58;;;;;;;8.57;6.07;;;;;;;;;;5073942;28;20071;-73
2021/07/13 09:13:25;;;;;;;7.60;5.80;;;;;;;;;;5073696;28;20481;-71
2021/07/13 09:15:58;;;;;;;10.52;5.93;;;;;;;;;;5073869;28;20074;-74
2021/07/13 09:18:30;;;;;;;7.32;5.90;;;;;;;;;;5055806;28;20024;-72
2021/07/13 09:20:56;;;;;;;;;;;;;;;;;;5056017;28;20053;-72
2021/07/13 09:23:22;;;;;;;11.43;6.07;;;;;;;;;;5073409;28;19974;-70
2021/07/13 09:25:50;;;;;;;9.57;5.05;;;;;;;;;;5055650;28;20020;-70
2021/07/13 09:28:16;;;;;;;7.85;5.75;;;;;;;;;;5055734;28;20025;-70
2021/07/13 09:30:44;;;;;;;8.57;6.28;;;;;;;;;;5073737;28;20107;-70
2021/07/13 09:33:11;;;;;;;8.35;5.90;;;;;;;;;;5073628;28;20020;-70
2021/07/13 09:35:37;;;;;;;8.70;5.85;;;;;;;;;;5073619;28;20027;-71
2021/07/13 09:38:03;;;;;;;11.18;5.68;;;;;;;;;;5055515;28;20086;-70
2021/07/13 09:40:36;;;;;;;8.38;5.47;;;;;;;;;;5073410;28;20100;-70
2021/07/13 09:43:02;;;;;;;;;;;;;;;;;;5073992;28;20035;-70
2021/07/13 09:45:31;;;;;;;8.95;5.72;;;;;;;;;;5073227;28;20395;-70
2021/07/13 09:47:58;;;;;;;8.07;5.88;;;;;;;;;;5055100;28;20492;-69
2021/07/13 09:50:32;;;;;;;8.45;5.70;;;;;;;;;;5073240;28;20031;-71
2021/07/13 09:52:59;;;;;;;9.98;5.65;;;;;;;;;;5073277;28;20063;-70
2021/07/13 09:55:26;;;;;;;9.52;5.75;;;;;;;;;;5073043;28;20401;-69
2021/07/13 09:57:52;;;;;;;9.25;5.88;;;;;;;;;;5073141;28;20048;-70
2021/07/13 10:00:18;;;;;;;10.43;5.90;;;;;;;;;;5072786;28;20016;-70
2021/07/13 10:02:45;;;;;;;10.32;5.45;;;;;;;;;;5072683;28;20370;-70
2021/07/13 10:05:11;;;;;;;8.18;5.70;;;;;;;;;;5072348;28;20020;-70
2021/07/13 10:07:38;;;;;;;8.95;5.43;;;;;;;;;;5072952;28;20021;-69
2021/07/13 10:10:05;;;;;;;8.15;5.78;;;;;;;;;;5072910;28;20031;-71
2021/07/13 10:12:32;;;;;;;10.10;5.68;;;;;;;;;;5072580;28;20041;-71
2021/07/13 10:14:59;;;;;;;8.07;5.88;;;;;;;;;;5072745;28;20397;-70
2021/07/13 10:17:29;;;;;;;9.80;6.13;;;;;;;;;;5072799;28;20103;-69
2021/07/13 10:19:57;;;;;;;9.65;5.50;;;;;;;;;;5072356;28;20020;-69
2021/07/13 10:22:26;;;;;;;8.65;5.65;;;;;;;;;;5072098;28;20501;-71
2021/07/13 10:24:54;;;;;;;10.70;5.80;;;;;;;;;;5054363;28;20366;-70
2021/07/13 10:27:29;;;;;;;8.63;5.82;;;;;;;;;;5072509;28;20024;-71
2021/07/13 10:29:56;;;;;;;8.88;5.53;;;;;;;;;;5072352;28;20086;-70
2021/07/13 10:32:25;;;;;;;8.30;5.88;;;;;;;;;;5072023;28;20104;-70
2021/07/13 10:35:05;;;;;;;7.53;5.93;;;;;;;;;;5072239;28;20059;-69
2021/07/13 10:37:40;;;;;;;8.93;6.47;;;;;;;;;;5072283;28;20096;-70
2021/07/13 10:40:07;;;;;;;8.57;6.43;;;;;;;;;;5072272;28;20020;-68
2021/07/13 10:42:42;;;;;;;8.10;5.53;;;;;;;;;;5072068;28;20036;-71
2021/07/13 10:45:23;;;;;;;7.38;5.65;;;;;;;;;;5072238;28;20086;-71
2021/07/13 10:48:07;;;;;;;8.90;6.00;;;;;;;;;;5072168;28;20434;-69
2021/07/13 10:50:35;;;;;;;9.73;5.90;;;;;;;;;;5072026;28;20028;-71
2021/07/13 10:53:01;;;;;;;8.88;6.03;;;;;;;;;;5071818;28;20033;-70
2021/07/13 10:55:33;;;;;;;10.02;6.10;;;;;;;;;;5071925;28;20009;-71
2021/07/13 10:57:59;;;;;;;;;;;;;;;;;;5072398;28;20052;-71
2021/07/13 11:00:44;;;;;;;7.72;5.43;;;;;;;;;;5071938;28;19947;-70
2021/07/13 11:03:30;;;;;;;8.52;5.80;;;;;;;;;;5071586;28;20132;-69
2021/07/13 11:05:57;;;;;;;8.80;6.28;;;;;;;;;;5071538;28;20027;-70
2021/07/13 11:08:44;;;;;;;11.15;6.45;;;;;;;;;;5053790;28;20029;-70
2021/07/13 11:11:16;;;;;;;7.40;5.95;;;;;;;;;;5053674;28;20036;-69
2021/07/13 11:13:42;;;;;;;;;;;;;;;;;;5071980;28;20052;-70
2021/07/13 11:16:08;;;;;;;9.80;5.95;;;;;;;;;;5053035;28;20265;-70
2021/07/13 11:18:36;;;;;;;9.13;5.72;;;;;;;;;;5071575;28;20024;-71
2021/07/13 11:21:22;;;;;;;7.23;5.13;;;;;;;;;;5071514;28;20020;-70
2021/07/13 11:23:49;;;;;;;9.73;5.60;;;;;;;;;;5071503;28;20569;-70
2021/07/13 11:26:16;;;;;;;10.18;5.28;;;;;;;;;;5071272;28;20032;-70
2021/07/13 11:28:45;;;;;;;6.40;5.28;;;;;;;;;;5071335;28;20135;-70
2021/07/13 11:31:11;;;;;;;9.88;5.88;;;;;;;;;;5071324;28;20037;-70
2021/07/13 11:33:37;;;;;;;8.48;5.55;;;;;;;;;;5053334;28;20080;-70
2021/07/13 11:36:04;;;;;;;8.13;5.60;;;;;;;;;;5071409;28;20047;-69
2021/07/13 11:38:31;;;;;;;9.60;5.70;;;;;;;;;;5071288;28;20048;-71
2021/07/13 11:41:16;;;;;;;10.40;6.07;;;;;;;;;;5071267;28;20096;-70
2021/07/13 11:43:43;;;;;;;10.98;5.68;;;;;;;;;;5053365;28;20043;-70
2021/07/13 11:46:13;;;;;;;7.22;5.07;;;;;;;;;;5071210;28;20504;-70
2021/07/13 11:48:40;;;;;;;9.38;6.25;;;;;;;;;;5071284;28;20107;-71
2021/07/13 11:51:08;;;;;;;7.80;5.90;;;;;;;;;;5071197;28;20501;-70
2021/07/13 11:53:35;;;;;;;10.43;5.82;;;;;;;;;;5071141;28;20051;-71
2021/07/13 11:56:02;;;;;;;8.32;5.55;;;;;;;;;;5071106;28;20249;-71
2021/07/13 11:58:29;;;;;;;7.40;5.32;;;;;;;;;;5071336;28;20070;-71
2021/07/13 12:00:55;;;;;;;8.60;5.75;;;;;;;;;;5071105;28;20025;-70
2021/07/13 12:03:31;;;;;;;8.55;6.18;;;;;;;;;;5071107;28;20038;-73
2021/07/13 12:06:14;;;;;;;9.10;6.35;;;;;;;;;;5071137;28;20024;-70
2021/07/13 12:08:40;;;;;;;9.07;5.97;;;;;;;;;;5071106;28;20071;-70
2021/07/13 12:11:07;;;;;;;9.52;6.68;;;;;;;;;;5070798;28;20601;-71
2021/07/13 12:13:34;;;;;;;7.68;5.68;;;;;;;;;;5070533;28;20052;-71
2021/07/13 12:16:19;;;;;;;9.05;6.90;;;;;;;;;;5071062;28;20027;-71
2021/07/13 12:18:46;;;;;;;10.10;7.03;;;;;;;;;;5052949;28;20024;-71
2021/07/13 12:21:13;;;;;;;10.98;7.22;;;;;;;;;;5070638;28;20073;-70
2021/07/13 12:23:42;;;;;;;8.55;6.10;;;;;;;;;;5070751;28;20120;-71
2021/07/13 12:26:20;;;;;;;12.40;5.85;;;;;;;;;;5070790;28;20055;-70
2021/07/13 12:29:05;;;;;;;10.07;7.28;;;;;;;;;;5073768;28;20020;-70
2021/07/13 12:31:32;;;;;;;7.70;5.75;;;;;;;;;;5074654;28;20065;-70
2021/07/13 12:33:58;;;;;;;10.15;6.18;;;;;;;;;;5074609;28;20104;-70
2021/07/13 12:36:24;;;;;;;9.13;6.18;;;;;;;;;;5074599;28;20028;-71
2021/07/13 12:38:50;;;;;;;7.80;6.10;;;;;;;;;;5074589;28;20054;-70
2021/07/13 12:41:18;;;;;;;8.23;5.97;;;;;;;;;;5074414;28;20021;-70
2021/07/13 12:43:45;;;;;;;8.18;5.82;;;;;;;;;;5056385;28;20078;-70
2021/07/13 12:46:37;;;;;;;7.05;5.80;;;;;;;;;;5056272;28;20401;-70
2021/07/13 12:49:10;;;;;;;10.13;6.93;;;;;;;;;;5070657;28;20037;-70
2021/07/13 12:51:36;;;;;;;9.50;6.13;;;;;;;;;;5074300;28;20020;-70
2021/07/13 12:54:06;;;;;;;12.07;6.07;;;;;;;;;;5056183;28;20024;-70
2021/07/13 12:56:33;;;;;;;10.73;5.72;;;;;;;;;;5056079;28;20048;-70
2021/07/13 12:59:05;;;;;;;9.68;5.95;;;;;;;;;;5074164;28;20100;-70
2021/07/13 13:01:31;;;;;;;8.82;6.82;;;;;;;;;;5073868;28;20029;-70
2021/07/13 13:04:13;;;;;;;7.90;6.40;;;;;;;;;;5073933;28;20086;-71
2021/07/13 13:06:40;;;;;;;7.97;5.47;;;;;;;;;;5055999;28;20032;-70
2021/07/13 13:09:07;;;;;;;8.80;6.47;;;;;;;;;;5074131;28;20079;-71
2021/07/13 13:11:34;;;;;;;11.25;5.80;;;;;;;;;;5074009;28;20429;-73
2021/07/13 13:14:02;;;;;;;7.80;6.07;;;;;;;;;;5073856;28;20061;-70
2021/07/13 13:16:29;;;;;;;12.43;6.28;;;;;;;;;;5073690;28;20021;-70
2021/07/13 13:18:56;;;;;;;7.03;5.68;;;;;;;;;;5073759;28;20500;-70
2021/07/13 13:21:22;;;;;;;9.30;6.22;;;;;;;;;;5055742;28;20476;-70
2021/07/13 13:23:52;;;;;;;7.43;5.45;;;;;;;;;;5073575;28;20025;-70
2021/07/13 13:26:18;;;;;;;9.43;6.38;;;;;;;;;;5055610;28;20504;-71
2021/07/13 13:28:44;;;;;;;7.10;5.53;;;;;;;;;;5073519;28;20058;-71
2021/07/13 13:31:10;;;;;;;8.23;5.35;;;;;;;;;;5073198;28;20023;-71
2021/07/13 13:33:39;;;;;;;9.30;6.20;;;;;;;;;;5073309;28;20426;-71
2021/07/13 13:38:58;;;;;;;7.20;5.40;;;;;;;;;;5073317;28;20024;-70
2021/07/13 13:41:24;;;;;;;7.80;6.13;;;;;;;;;;5073161;28;20365;-70
2021/07/13 13:43:50;;;;;;;8.43;6.45;;;;;;;;;;5073365;28;20057;-70
2021/07/13 13:46:16;;;;;;;7.88;5.60;;;;;;;;;;5073322;28;20017;-71
2021/07/13 13:48:43;;;;;;;9.88;5.85;;;;;;;;;;5073317;28;20063;-71
2021/07/13 13:51:09;;;;;;;8.50;5.97;;;;;;;;;;5073236;28;20025;-71
2021/07/13 13:53:35;;;;;;;13.48;6.10;;;;;;;;;;5073262;28;20028;-70
2021/07/13 13:56:01;;;;;;;8.07;5.43;;;;;;;;;;5073096;28;20477;-70
2021/07/13 13:58:28;;;;;;;9.95;6.63;;;;;;;;;;5073168;28;20500;-70
2021/07/13 14:00:54;;;;;;;10.10;6.88;;;;;;;;;;5073033;28;20054;-71
2021/07/13 14:03:20;;;;;;;10.20;6.97;;;;;;;;;;5072980;28;20519;-71
2021/07/13 14:05:46;;;;;;;11.23;5.82;;;;;;;;;;5073120;28;20028;-71
2021/07/13 14:08:12;;;;;;;9.32;5.85;;;;;;;;;;5072932;28;20037;-70
2021/07/13 14:10:38;;;;;;;11.60;5.88;;;;;;;;;;5055022;28;20488;-70
2021/07/13 14:13:04;;;;;;;10.55;6.13;;;;;;;;;;5072580;28;20040;-71
2021/07/13 14:15:30;;;;;;;11.48;6.20;;;;;;;;;;5072837;28;20111;-71
2021/07/13 14:17:56;;;;;;;7.30;5.95;;;;;;;;;;5072716;28;20025;-70
2021/07/13 14:20:22;;;;;;;9.40;5.60;;;;;;;;;;5054660;28;20031;-70
2021/07/13 14:22:49;;;;;;;8.82;6.18;;;;;;;;;;5072497;28;20036;-70
2021/07/13 14:25:16;;;;;;;10.38;5.88;;;;;;;;;;5054528;28;20024;-70
2021/07/13 14:27:46;;;;;;;9.57;6.18;;;;;;;;;;5072407;28;20031;-71
2021/07/13 14:30:13;;;;;;;9.90;5.88;;;;;;;;;;5072272;28;20024;-71
2021/07/13 14:32:40;;;;;;;9.45;5.70;;;;;;;;;;5072327;28;20099;-70
2021/07/13 14:35:07;;;;;;;9.80;5.80;;;;;;;;;;5072252;28;20091;-71
2021/07/13 14:37:33;;;;;;;8.35;5.35;;;;;;;;;;5072292;28;20050;-69
2021/07/13 14:39:59;;;;;;;10.52;6.05;;;;;;;;;;5072280;28;20020;-70
2021/07/13 14:42:27;;;;;;;9.73;5.68;;;;;;;;;;5072022;28;20512;-70
2021/07/13 14:44:53;;;;;;;9.20;6.15;;;;;;;;;;5072216;28;20023;-69
2021/07/13 14:47:19;;;;;;;10.15;6.75;;;;;;;;;;5072005;28;20032;-71
2021/07/13 14:49:48;;;;;;;9.05;6.40;;;;;;;;;;5072120;28;20024;-71